Time;durP1;ratioP1;P1;durP2;ratioP2;P2;SDS_P1;SDS_P2;PMS_P1;PMS_P2;Temp;Humidity;BMP_temperature;BMP_pressure;BME280_temperature;BME280_humidity;BME280_pressure;Samples;Min_cycle;Max_cycle;Signal;HPM_P1;HPM_P2
2022/11/06 00:00:07;;;;;;;6.72;2.85;;;11.60;99.90;;;;;;7404252;19;19990;-83
2022/11/06 00:02:36;;;;;;;6.28;2.83;;;11.60;99.90;;;;;;7408331;19;19998;-83
2022/11/06 00:07:50;;;;;;;5.13;2.10;;;11.70;99.90;;;;;;7407515;19;19919;-83
2022/11/06 00:10:20;;;;;;;5.00;2.38;;;11.70;99.90;;;;;;7406540;19;20295;-83
2022/11/06 00:12:49;;;;;;;6.63;2.22;;;11.80;99.90;;;;;;7407643;19;19915;-83
2022/11/06 00:15:18;;;;;;;6.00;2.85;;;11.80;99.90;;;;;;7405614;19;19921;-83
2022/11/06 00:17:50;;;;;;;3.92;1.70;;;11.70;99.90;;;;;;7405287;19;19918;-83
2022/11/06 00:20:19;;;;;;;6.07;2.03;;;11.70;99.90;;;;;;7407168;19;19923;-83
2022/11/06 00:22:51;;;;;;;4.72;1.88;;;11.70;99.90;;;;;;7406019;19;19914;-83
2022/11/06 00:25:20;;;;;;;8.90;2.80;;;11.80;99.90;;;;;;7403905;19;19923;-82
2022/11/06 00:27:49;;;;;;;8.15;2.75;;;11.70;99.90;;;;;;7403978;19;20030;-84
2022/11/06 00:30:19;;;;;;;5.32;2.80;;;11.80;99.90;;;;;;7402418;19;20394;-83
2022/11/06 00:32:48;;;;;;;7.72;1.83;;;11.70;99.90;;;;;;7406947;19;20235;-82
2022/11/06 00:35:17;;;;;;;6.93;2.63;;;11.70;99.90;;;;;;7406139;19;19914;-83
2022/11/06 00:37:46;;;;;;;5.57;2.30;;;11.60;99.90;;;;;;7403681;19;19915;-83
2022/11/06 00:40:18;;;;;;;6.47;2.80;;;11.60;99.90;;;;;;7402903;19;19930;-83
2022/11/06 00:42:46;;;;;;;5.50;2.42;;;11.60;99.90;;;;;;7405122;19;19922;-83
2022/11/06 00:45:16;;;;;;;5.88;2.40;;;11.50;99.90;;;;;;7398048;19;20017;-82
2022/11/06 00:47:45;;;;;;;6.72;2.30;;;11.50;99.90;;;;;;7396431;19;20010;-83
2022/11/06 00:50:14;;;;;;;5.68;2.95;;;11.50;99.90;;;;;;7403543;19;19906;-83
2022/11/06 00:52:43;;;;;;;7.18;2.70;;;11.50;99.90;;;;;;7405972;19;19928;-83
2022/11/06 00:55:12;;;;;;;4.25;1.63;;;11.40;99.90;;;;;;7404261;19;19918;-84
2022/11/06 00:57:43;;;;;;;5.13;1.65;;;11.50;99.90;;;;;;7403297;19;19914;-83
2022/11/06 01:00:16;;;;;;;6.40;2.63;;;11.40;99.90;;;;;;7402145;19;19922;-82
2022/11/06 01:02:46;;;;;;;7.93;3.45;;;11.40;99.90;;;;;;7405950;19;19914;-82
2022/11/06 01:05:15;;;;;;;;;;;11.50;99.90;;;;;;7406792;19;19922;-82
2022/11/06 01:07:44;;;;;;;10.35;2.35;;;11.40;99.90;;;;;;7401521;19;19922;-83
2022/11/06 01:10:13;;;;;;;7.75;2.75;;;11.40;99.90;;;;;;7403242;19;20358;-83
2022/11/06 01:12:44;;;;;;;5.68;3.53;;;11.30;99.90;;;;;;7406617;19;19918;-82
2022/11/06 01:15:13;;;;;;;5.72;2.17;;;11.20;99.90;;;;;;7403648;19;19914;-83
2022/11/06 01:17:42;;;;;;;6.78;3.90;;;11.10;99.90;;;;;;7402856;19;19919;-82
2022/11/06 01:20:12;;;;;;;7.28;2.58;;;11.10;99.90;;;;;;7403929;19;19994;-83
2022/11/06 01:22:41;;;;;;;6.22;3.30;;;11.10;99.90;;;;;;7404657;19;19915;-83
2022/11/06 01:25:11;;;;;;;5.88;2.85;;;11.10;99.90;;;;;;7402458;19;19974;-83
2022/11/06 01:27:39;;;;;;;6.35;3.05;;;11.10;99.90;;;;;;7400660;19;19919;-83
2022/11/06 01:30:13;;;;;;;4.38;1.83;;;11.10;99.90;;;;;;7402627;19;19914;-84
2022/11/06 01:32:41;;;;;;;5.57;2.60;;;11.10;99.90;;;;;;7403800;19;19915;-83
2022/11/06 01:35:11;;;;;;;7.45;3.65;;;11.10;99.90;;;;;;7404735;19;19926;-82
2022/11/06 01:37:39;;;;;;;7.70;2.60;;;11.10;99.90;;;;;;7406883;19;19919;-83
2022/11/06 01:40:09;;;;;;;8.45;2.88;;;11.20;99.90;;;;;;7412929;19;20340;-83
2022/11/06 01:42:38;;;;;;;5.85;1.60;;;11.20;99.90;;;;;;7409908;19;19915;-83
2022/11/06 01:45:26;;;;;;;7.10;4.10;;;11.30;99.90;;;;;;7411778;19;19934;-83
2022/11/06 01:47:56;;;;;;;4.07;1.25;;;11.40;99.90;;;;;;7410110;19;19933;-83
2022/11/06 01:50:25;;;;;;;5.22;2.30;;;11.30;99.90;;;;;;7412571;19;20366;-83
2022/11/06 01:52:54;;;;;;;5.75;2.65;;;11.40;99.90;;;;;;7409328;19;19918;-83
2022/11/06 01:55:31;;;;;;;4.65;2.30;;;11.40;99.90;;;;;;7407833;19;19918;-84
2022/11/06 01:58:03;;;;;;;6.22;2.88;;;11.40;99.90;;;;;;7406210;19;19918;-83
2022/11/06 02:00:34;;;;;;;10.70;3.28;;;11.40;99.90;;;;;;7407409;19;19923;-82
2022/11/06 02:03:04;;;;;;;7.18;2.75;;;11.30;99.90;;;;;;7412948;19;19914;-83
2022/11/06 02:05:33;;;;;;;3.97;2.17;;;11.20;99.90;;;;;;7411214;19;19978;-84
2022/11/06 02:08:05;;;;;;;5.10;2.33;;;11.20;99.90;;;;;;7406537;19;19922;-83
2022/11/06 02:10:35;;;;;;;4.38;2.28;;;11.10;99.90;;;;;;7409497;19;19978;-83
2022/11/06 02:13:14;;;;;;;6.47;2.83;;;11.10;99.90;;;;;;7413436;19;19918;-85
2022/11/06 02:15:51;;;;;;;11.35;3.38;;;11.10;99.90;;;;;;7403842;19;20007;-83
2022/11/06 02:18:36;;;;;;;6.85;2.60;;;11.30;99.90;;;;;;7409514;19;19919;-83
2022/11/06 02:21:26;;;;;;;7.57;3.70;;;11.20;99.90;;;;;;7408175;19;20348;-83
2022/11/06 02:24:13;;;;;;;9.77;3.72;;;11.20;99.90;;;;;;7409501;19;19959;-83
2022/11/06 02:27:02;;;;;;;8.43;3.38;;;11.10;99.90;;;;;;7399915;19;20022;-83
2022/11/06 02:29:36;;;;;;;7.35;2.80;;;11.00;99.90;;;;;;7411047;19;19941;-83
2022/11/06 02:32:11;;;;;;;5.60;2.25;;;11.20;99.90;;;;;;7409265;19;19927;-83
2022/11/06 02:34:42;;;;;;;11.90;3.35;;;11.10;99.90;;;;;;7408703;19;19934;-83
2022/11/06 02:37:17;;;;;;;5.45;2.58;;;11.10;99.90;;;;;;7400410;19;20007;-84
2022/11/06 02:39:48;;;;;;;7.05;2.30;;;11.00;99.90;;;;;;7410173;19;19941;-83
2022/11/06 02:42:22;;;;;;;8.45;3.75;;;11.00;99.90;;;;;;7410466;19;19977;-83
2022/11/06 02:44:54;;;;;;;8.02;3.00;;;11.00;99.90;;;;;;7408157;19;19911;-83
2022/11/06 02:47:27;;;;;;;7.63;4.25;;;10.90;99.90;;;;;;7405104;19;20014;-82
2022/11/06 02:50:02;;;;;;;7.97;3.47;;;10.80;99.90;;;;;;7410437;19;19915;-83
2022/11/06 02:52:35;;;;;;;5.72;2.00;;;10.90;99.90;;;;;;7409411;19;19915;-83
2022/11/06 02:55:10;;;;;;;4.72;2.63;;;11.00;99.90;;;;;;7406580;19;19922;-84
2022/11/06 02:57:46;;;;;;;7.95;1.95;;;11.00;99.90;;;;;;7409114;19;20340;-83
2022/11/06 03:00:18;;;;;;;5.75;4.25;;;10.90;99.90;;;;;;7411114;19;19927;-83
2022/11/06 03:02:53;;;;;;;5.85;3.10;;;10.80;99.90;;;;;;7408456;19;19922;-84
2022/11/06 03:05:29;;;;;;;6.40;2.80;;;10.90;99.90;;;;;;7407611;19;19922;-83
2022/11/06 03:08:04;;;;;;;5.70;2.30;;;10.80;99.90;;;;;;7410834;19;19925;-84
2022/11/06 03:10:39;;;;;;;5.97;3.47;;;10.90;99.90;;;;;;7410515;19;19923;-83
2022/11/06 03:13:17;;;;;;;5.30;3.40;;;11.00;99.90;;;;;;7407895;19;20294;-84
2022/11/06 03:15:53;;;;;;;7.50;2.88;;;10.90;99.90;;;;;;7399219;19;20025;-83
2022/11/06 03:18:29;;;;;;;7.78;3.55;;;10.80;99.90;;;;;;7400659;19;20021;-83
2022/11/06 03:21:01;;;;;;;5.13;2.25;;;10.80;99.90;;;;;;7406736;19;19923;-83
2022/11/06 03:23:36;;;;;;;7.88;2.25;;;10.80;99.90;;;;;;7409370;19;19914;-83
2022/11/06 03:26:13;;;;;;;5.53;1.67;;;10.80;99.90;;;;;;7406337;19;19914;-83
2022/11/06 03:28:53;;;;;;;7.20;2.83;;;10.90;99.90;;;;;;7407614;19;19974;-83
2022/11/06 03:31:31;;;;;;;5.95;2.45;;;10.80;99.90;;;;;;7404344;19;19922;-83
2022/11/06 03:34:04;;;;;;;8.60;3.05;;;10.90;99.90;;;;;;7407434;19;19925;-83
2022/11/06 03:36:35;;;;;;;5.47;2.05;;;10.90;99.90;;;;;;7405401;19;20011;-83
2022/11/06 03:39:08;;;;;;;5.82;3.35;;;10.90;99.90;;;;;;7402689;19;20010;-83
2022/11/06 03:41:43;;;;;;;7.57;3.83;;;10.90;99.90;;;;;;7407160;19;19926;-83
2022/11/06 03:44:19;;;;;;;5.78;3.50;;;10.80;99.90;;;;;;7407490;19;19926;-84
2022/11/06 03:46:52;;;;;;;5.05;2.17;;;10.80;99.90;;;;;;7405260;19;19937;-83
2022/11/06 03:49:26;;;;;;;6.93;2.28;;;11.00;99.90;;;;;;7408544;19;20257;-83
2022/11/06 03:52:00;;;;;;;6.10;2.85;;;10.90;99.90;;;;;;7405375;19;19923;-83
2022/11/06 03:54:32;;;;;;;4.55;3.03;;;10.90;99.90;;;;;;7406448;19;19934;-83
2022/11/06 03:57:06;;;;;;;8.80;2.85;;;10.90;99.90;;;;;;7404797;19;20415;-83
2022/11/06 03:59:43;;;;;;;5.07;2.67;;;10.80;99.90;;;;;;7400993;19;20025;-83
2022/11/06 04:02:14;;;;;;;4.82;2.17;;;10.90;99.90;;;;;;7406374;19;19926;-84
2022/11/06 04:04:49;;;;;;;6.20;3.00;;;11.00;99.90;;;;;;7406127;19;20336;-83
2022/11/06 04:07:22;;;;;;;5.30;3.05;;;10.90;99.90;;;;;;7408781;19;19922;-83
2022/11/06 04:15:35;;;;;;;4.15;2.75;;;10.90;99.90;;;;;;7404654;19;19998;-83
2022/11/06 04:18:04;;;;;;;3.70;1.50;;;11.00;99.90;;;;;;7404315;19;19922;-83
2022/11/06 04:23:33;;;;;;;4.57;2.33;;;10.80;99.90;;;;;;7399213;19;20017;-83
2022/11/06 04:28:58;;;;;;;6.78;2.90;;;10.80;99.90;;;;;;7406909;19;19959;-82
2022/11/06 04:31:36;;;;;;;8.45;2.70;;;10.80;99.90;;;;;;7406133;19;20351;-83
2022/11/06 04:34:10;;;;;;;6.00;2.28;;;10.60;99.90;;;;;;7404996;19;19921;-83
2022/11/06 04:36:47;;;;;;;7.03;2.42;;;10.80;99.90;;;;;;7405199;19;20290;-83
2022/11/06 04:39:22;;;;;;;8.45;2.47;;;10.80;99.90;;;;;;7405156;19;19922;-83
2022/11/06 04:41:59;;;;;;;9.45;2.85;;;10.70;99.90;;;;;;7399725;19;20015;-82
2022/11/06 04:44:34;;;;;;;7.05;2.92;;;10.60;99.90;;;;;;7393952;19;20014;-83
2022/11/06 04:47:09;;;;;;;6.88;1.95;;;10.60;99.90;;;;;;7399003;19;20240;-83
2022/11/06 04:49:40;;;;;;;4.35;2.35;;;10.60;99.90;;;;;;7405928;19;19945;-83
2022/11/06 04:52:14;;;;;;;6.80;1.88;;;10.40;99.90;;;;;;7404556;19;19915;-83
2022/11/06 04:54:43;;;;;;;8.10;2.38;;;10.50;99.90;;;;;;7404507;19;19978;-83
2022/11/06 04:57:12;;;;;;;5.07;1.75;;;10.50;99.90;;;;;;7404496;19;19914;-83
2022/11/06 04:59:41;;;;;;;3.05;1.02;;;10.50;99.90;;;;;;7400603;19;20259;-83
2022/11/06 05:02:13;;;;;;;5.18;1.40;;;10.60;99.90;;;;;;7405288;19;20491;-83
2022/11/06 05:04:42;;;;;;;8.63;2.63;;;10.50;99.90;;;;;;7404121;19;20340;-83
2022/11/06 05:07:13;;;;;;;5.75;1.45;;;10.50;99.90;;;;;;7404594;19;19918;-84
2022/11/06 05:09:42;;;;;;;6.47;3.30;;;10.60;99.90;;;;;;7405132;19;20358;-83
2022/11/06 05:12:11;;;;;;;6.43;2.88;;;10.60;99.90;;;;;;7402682;19;19915;-83
2022/11/06 05:14:40;;;;;;;8.07;2.90;;;10.70;99.90;;;;;;7402773;19;19914;-83
2022/11/06 05:17:11;;;;;;;6.13;2.45;;;10.70;99.90;;;;;;7401508;19;19919;-83
2022/11/06 05:19:41;;;;;;;7.07;2.75;;;10.60;99.90;;;;;;7404475;19;19922;-82
2022/11/06 05:24:52;;;;;;;7.35;1.90;;;10.60;99.90;;;;;;7390749;19;20787;-83
2022/11/06 05:27:21;;;;;;;5.57;2.72;;;10.60;99.90;;;;;;7403393;19;19931;-83
2022/11/06 05:29:50;;;;;;;4.80;2.38;;;10.50;99.90;;;;;;7404016;19;19919;-83
2022/11/06 05:32:21;;;;;;;4.80;2.10;;;10.50;99.90;;;;;;7406389;19;19933;-83
2022/11/06 05:34:50;;;;;;;6.95;2.63;;;10.50;99.90;;;;;;7401763;19;19925;-83
2022/11/06 05:37:19;;;;;;;4.85;2.17;;;10.60;99.90;;;;;;7404878;19;19918;-83
2022/11/06 05:39:48;;;;;;;4.13;1.38;;;10.50;99.90;;;;;;7403221;19;19918;-83
2022/11/06 05:42:17;;;;;;;4.93;1.60;;;10.50;99.90;;;;;;7405585;19;19919;-83
2022/11/06 05:44:46;;;;;;;5.70;1.67;;;10.50;99.90;;;;;;7396171;19;20029;-83
2022/11/06 05:47:15;;;;;;;5.70;2.33;;;10.60;99.90;;;;;;7394139;19;20108;-83
2022/11/06 05:49:46;;;;;;;6.68;2.95;;;10.50;99.90;;;;;;7404632;19;19914;-83
2022/11/06 05:52:16;;;;;;;3.08;0.70;;;10.60;99.90;;;;;;7405138;19;19925;-83
2022/11/06 05:54:45;;;;;;;7.25;1.38;;;10.70;99.90;;;;;;7401553;19;19939;-83
2022/11/06 05:57:14;;;;;;;5.95;1.90;;;10.70;99.90;;;;;;7405685;19;20264;-82
2022/11/06 05:59:43;;;;;;;7.60;2.47;;;10.70;99.90;;;;;;7401185;19;19923;-83
2022/11/06 06:02:12;;;;;;;3.65;1.30;;;10.60;99.90;;;;;;7405441;19;20066;-83
2022/11/06 06:04:41;;;;;;;3.63;2.08;;;10.60;99.90;;;;;;7401209;19;19937;-84
2022/11/06 06:07:13;;;;;;;6.00;2.22;;;10.70;99.90;;;;;;7400322;19;20128;-83
2022/11/06 06:09:41;;;;;;;5.82;1.92;;;10.80;99.90;;;;;;7402362;19;19922;-83
2022/11/06 06:12:12;;;;;;;5.28;1.58;;;10.80;99.90;;;;;;7397694;19;20001;-84
2022/11/06 06:14:41;;;;;;;5.32;1.17;;;10.90;99.90;;;;;;7400272;19;19978;-83
2022/11/06 06:17:10;;;;;;;7.00;2.38;;;11.00;99.90;;;;;;7402806;19;20367;-83
2022/11/06 06:19:39;;;;;;;5.57;2.28;;;11.10;99.90;;;;;;7400506;19;20297;-83
2022/11/06 06:22:08;;;;;;;4.93;1.20;;;11.00;99.90;;;;;;7401404;19;19922;-83
2022/11/06 06:24:39;;;;;;;6.55;1.13;;;11.00;99.90;;;;;;7404548;19;20256;-83
2022/11/06 06:27:09;;;;;;;5.47;1.70;;;11.10;99.90;;;;;;7406281;19;20015;-83
2022/11/06 06:29:38;;;;;;;4.15;1.15;;;11.00;99.90;;;;;;7408680;19;19930;-83
2022/11/06 06:32:07;;;;;;;4.10;1.80;;;11.00;99.90;;;;;;7410288;19;19919;-83
2022/11/06 06:34:36;;;;;;;3.95;1.33;;;11.00;99.90;;;;;;7408711;19;19929;-83
2022/11/06 06:37:05;;;;;;;3.28;0.90;;;11.00;99.90;;;;;;7409839;19;19952;-83
2022/11/06 06:39:34;;;;;;;2.17;0.70;;;11.10;99.90;;;;;;7406689;19;19921;-83
2022/11/06 06:42:05;;;;;;;4.18;1.95;;;11.10;99.90;;;;;;7410711;19;19966;-83
2022/11/06 06:44:34;;;;;;;4.68;1.63;;;11.10;99.90;;;;;;7408182;19;19923;-84
2022/11/06 06:47:03;;;;;;;5.93;1.00;;;11.10;99.90;;;;;;7407956;19;19986;-83
2022/11/06 06:49:32;;;;;;;5.80;1.55;;;11.00;99.90;;;;;;7399509;19;20018;-84
2022/11/06 06:52:01;;;;;;;4.90;1.00;;;10.90;99.90;;;;;;7400356;19;20536;-83
2022/11/06 06:54:30;;;;;;;2.97;0.70;;;11.00;99.90;;;;;;7407462;19;19982;-83
2022/11/06 06:56:59;;;;;;;6.20;1.98;;;11.00;99.90;;;;;;7410572;19;19918;-83
2022/11/06 06:59:32;;;;;;;4.07;1.20;;;11.00;99.90;;;;;;7407968;19;19921;-84
2022/11/06 07:02:01;;;;;;;3.78;1.58;;;10.90;99.90;;;;;;7403802;19;19926;-83
2022/11/06 07:04:30;;;;;;;4.82;1.40;;;10.90;99.90;;;;;;7405459;19;19915;-84
2022/11/06 07:06:59;;;;;;;5.07;0.98;;;10.80;99.90;;;;;;7408955;19;19921;-83
2022/11/06 07:09:31;;;;;;;5.10;2.00;;;10.80;99.90;;;;;;7407468;19;19911;-83
2022/11/06 07:12:00;;;;;;;5.78;1.33;;;10.80;99.90;;;;;;7405337;19;20336;-83
2022/11/06 07:14:32;;;;;;;4.20;1.40;;;10.80;99.90;;;;;;7405670;19;19928;-83
2022/11/06 07:17:00;;;;;;;5.10;2.63;;;11.00;99.90;;;;;;7405860;19;19934;-83
2022/11/06 07:19:29;;;;;;;4.55;1.45;;;11.00;99.90;;;;;;7409501;19;19926;-83
2022/11/06 07:21:58;;;;;;;5.65;1.92;;;11.00;99.90;;;;;;7408120;19;19918;-83
2022/11/06 07:24:27;;;;;;;7.03;1.73;;;11.10;99.90;;;;;;7405869;19;19922;-83
2022/11/06 07:26:56;;;;;;;5.80;1.13;;;11.00;99.90;;;;;;7406149;19;19929;-83
2022/11/06 07:29:25;;;;;;;5.28;0.90;;;11.20;99.90;;;;;;7411891;19;19946;-84
2022/11/06 07:31:56;;;;;;;4.03;0.52;;;11.20;99.90;;;;;;7405784;19;20324;-83
2022/11/06 07:34:25;;;;;;;4.38;1.08;;;11.20;99.90;;;;;;7408095;19;19965;-83
2022/11/06 07:36:54;;;;;;;5.20;0.93;;;11.30;99.90;;;;;;7406635;19;20565;-83
2022/11/06 07:39:23;;;;;;;5.88;1.10;;;11.30;99.90;;;;;;7408198;19;19922;-83
2022/11/06 07:41:52;;;;;;;5.57;1.60;;;11.30;99.90;;;;;;7410416;19;19929;-83
2022/11/06 07:44:21;;;;;;;3.30;0.50;;;11.20;99.90;;;;;;7410040;19;19978;-83
2022/11/06 07:46:50;;;;;;;5.05;0.85;;;11.20;99.90;;;;;;7410701;19;19915;-83
2022/11/06 07:49:21;;;;;;;6.68;0.73;;;11.30;99.90;;;;;;7409270;19;19915;-83
2022/11/06 07:51:50;;;;;;;4.90;0.75;;;11.20;99.90;;;;;;7408601;19;19929;-83
2022/11/06 07:54:19;;;;;;;5.35;0.70;;;11.20;99.90;;;;;;7402850;19;19934;-82
2022/11/06 07:56:48;;;;;;;5.50;0.85;;;11.20;99.90;;;;;;7407021;19;19925;-83
2022/11/06 07:59:17;;;;;;;4.53;1.10;;;11.20;99.90;;;;;;7405360;19;19915;-83
2022/11/06 08:01:46;;;;;;;2.08;0.35;;;11.30;99.90;;;;;;7408671;19;19931;-83
2022/11/06 08:04:15;;;;;;;4.53;0.75;;;11.40;99.90;;;;;;7406888;19;19938;-84
2022/11/06 08:06:46;;;;;;;4.22;1.17;;;11.40;99.90;;;;;;7405843;19;20384;-83
2022/11/06 08:09:15;;;;;;;7.93;0.80;;;11.50;99.90;;;;;;7407406;19;19942;-83
2022/11/06 08:11:44;;;;;;;3.72;1.27;;;11.50;99.90;;;;;;7405699;19;19921;-83
2022/11/06 08:14:13;;;;;;;3.95;0.60;;;11.60;99.90;;;;;;7405188;19;19926;-84
2022/11/06 08:16:42;;;;;;;4.30;1.48;;;11.70;99.90;;;;;;7409901;19;19958;-84
2022/11/06 08:19:11;;;;;;;8.88;1.52;;;11.80;99.90;;;;;;7409558;19;19925;-83
2022/11/06 08:21:40;;;;;;;6.97;1.50;;;11.80;99.90;;;;;;7406143;19;19926;-85
2022/11/06 08:24:12;;;;;;;4.63;0.88;;;11.80;99.90;;;;;;7405206;19;19919;-83
2022/11/06 08:26:41;;;;;;;3.58;0.47;;;11.90;99.90;;;;;;7407505;19;19929;-83
2022/11/06 08:29:09;;;;;;;3.13;0.68;;;12.00;99.90;;;;;;7400332;19;19929;-84
2022/11/06 08:31:38;;;;;;;5.60;1.58;;;12.10;99.90;;;;;;7404463;19;19925;-83
2022/11/06 08:34:07;;;;;;;4.28;0.80;;;12.20;99.90;;;;;;7404240;19;20324;-83
2022/11/06 08:36:39;;;;;;;6.93;0.60;;;12.30;99.90;;;;;;7408277;19;19914;-83
2022/11/06 08:39:11;;;;;;;3.25;0.57;;;12.30;99.90;;;;;;7406646;19;19945;-83
2022/11/06 08:41:40;;;;;;;5.10;1.52;;;12.30;99.90;;;;;;7360407;19;19922;-84
2022/11/06 08:44:09;;;;;;;4.15;1.25;;;12.30;99.90;;;;;;7355312;19;19934;-83
2022/11/06 08:46:38;;;;;;;3.08;0.43;;;12.20;99.90;;;;;;7405993;19;19930;-83
2022/11/06 08:49:07;;;;;;;5.55;0.45;;;12.20;99.90;;;;;;7399140;19;19929;-83
2022/11/06 08:51:35;;;;;;;3.42;0.65;;;12.30;99.90;;;;;;7406398;19;20276;-84
2022/11/06 08:54:04;;;;;;;3.95;0.47;;;12.30;99.90;;;;;;7404411;19;19919;-84
2022/11/06 08:56:36;;;;;;;6.47;1.60;;;12.30;99.90;;;;;;7403983;19;19933;-84
2022/11/06 08:59:06;;;;;;;3.40;0.50;;;12.30;99.90;;;;;;7402827;19;19914;-84
2022/11/06 09:01:34;;;;;;;4.50;1.27;;;12.20;99.90;;;;;;7403768;19;19922;-83
2022/11/06 09:04:04;;;;;;;3.13;0.50;;;12.20;99.90;;;;;;7313699;19;19917;-83
2022/11/06 09:06:36;;;;;;;5.90;1.50;;;12.10;99.90;;;;;;7396386;19;19924;-83
2022/11/06 09:09:05;;;;;;;3.67;0.73;;;12.30;99.90;;;;;;7359751;19;20339;-83
2022/11/06 09:11:37;;;;;;;3.30;0.70;;;12.30;99.90;;;;;;7404589;19;19925;-83
2022/11/06 09:14:06;;;;;;;3.35;0.65;;;12.30;99.90;;;;;;7405554;19;20342;-83
2022/11/06 09:16:35;;;;;;;4.28;1.42;;;12.10;99.90;;;;;;7404493;19;20392;-83
2022/11/06 09:19:04;;;;;;;4.05;0.32;;;12.20;99.90;;;;;;7404526;19;19992;-82
2022/11/06 09:21:34;;;;;;;4.07;0.50;;;12.20;99.90;;;;;;7402760;19;19919;-83
2022/11/06 09:24:03;;;;;;;6.13;0.43;;;12.30;99.90;;;;;;7401722;19;20264;-83
2022/11/06 09:26:32;;;;;;;5.53;0.68;;;12.30;99.90;;;;;;7401792;19;19921;-83
2022/11/06 09:29:03;;;;;;;7.10;1.60;;;12.30;99.90;;;;;;7400683;19;19919;-82
2022/11/06 09:31:32;;;;;;;6.05;0.80;;;12.20;99.90;;;;;;7399145;19;19922;-83
2022/11/06 09:34:02;;;;;;;8.18;1.27;;;12.30;99.90;;;;;;7404725;19;19919;-83
2022/11/06 09:36:31;;;;;;;5.13;0.65;;;12.40;99.90;;;;;;7403926;19;19942;-84
2022/11/06 09:39:00;;;;;;;5.22;0.60;;;12.40;99.90;;;;;;7402460;19;20312;-83
2022/11/06 09:41:41;;;;;;;3.03;0.93;;;12.30;99.90;;;;;;7403397;19;19925;-83
2022/11/06 09:44:26;;;;;;;2.65;0.45;;;12.30;99.90;;;;;;7401511;19;19918;-83
2022/11/06 09:46:57;;;;;;;5.70;0.43;;;12.40;99.90;;;;;;7404056;19;19923;-83
2022/11/06 09:49:31;;;;;;;5.53;0.90;;;12.60;99.90;;;;;;7403438;19;19922;-83
2022/11/06 09:52:04;;;;;;;3.85;0.47;;;12.60;99.90;;;;;;7402823;19;20260;-83
2022/11/06 09:54:38;;;;;;;5.72;1.33;;;12.60;99.90;;;;;;7399996;19;20580;-83
2022/11/06 09:57:13;;;;;;;1.75;1.00;;;12.60;99.90;;;;;;7399587;19;20361;-84
2022/11/06 09:59:46;;;;;;;5.75;0.93;;;12.60;99.90;;;;;;7405888;19;20717;-83
2022/11/06 10:02:30;;;;;;;4.88;1.00;;;12.80;99.90;;;;;;7410022;19;19918;-83
2022/11/06 10:05:07;;;;;;;5.10;1.20;;;12.90;99.90;;;;;;7407078;19;20014;-83
2022/11/06 10:07:37;;;;;;;11.48;1.20;;;13.00;99.90;;;;;;7407221;19;19926;-85
2022/11/06 10:10:09;;;;;;;39.33;3.03;;;13.20;99.90;;;;;;7409680;19;19947;-81
2022/11/06 10:12:49;;;;;;;1191.50;99.57;;;13.30;99.90;;;;;;7411612;19;19940;-83
2022/11/06 10:15:27;;;;;;;218.60;18.58;;;13.30;99.90;;;;;;7406378;19;19921;-83
2022/11/06 10:18:06;;;;;;;15.40;3.42;;;13.50;99.90;;;;;;7407261;19;20340;-83
2022/11/06 10:20:45;;;;;;;17.42;2.45;;;13.50;99.90;;;;;;7397808;19;19922;-87
2022/11/06 10:23:21;;;;;;;15.55;1.67;;;13.60;99.90;;;;;;7379643;19;19938;-88
2022/11/06 10:26:06;;;;;;;5.28;1.15;;;13.60;99.90;;;;;;7401931;19;19922;-87
2022/11/06 10:28:59;;;;;;;7.97;1.42;;;13.60;99.90;;;;;;7396177;19;19947;-88
2022/11/06 10:31:39;;;;;;;8.60;1.30;;;13.50;99.90;;;;;;7406081;19;19918;-87
2022/11/06 10:34:12;;;;;;;7.90;0.98;;;13.50;99.90;;;;;;7403021;19;19949;-87
2022/11/06 10:36:47;;;;;;;8.02;1.27;;;13.40;99.90;;;;;;7408223;19;19918;-86
2022/11/06 10:39:19;;;;;;;4.25;1.13;;;13.50;99.90;;;;;;7407999;19;19930;-84
2022/11/06 10:41:53;;;;;;;5.43;1.33;;;13.50;99.90;;;;;;7404095;19;19929;-86
2022/11/06 10:44:26;;;;;;;7.10;1.30;;;13.50;99.90;;;;;;7405171;19;20285;-84
2022/11/06 10:47:05;;;;;;;5.32;1.15;;;13.50;99.90;;;;;;7405415;19;20292;-84
2022/11/06 10:49:42;;;;;;;5.55;1.02;;;13.60;99.90;;;;;;7407983;19;20363;-84
2022/11/06 10:52:26;;;;;;;6.22;1.60;;;13.50;99.90;;;;;;7407090;19;19925;-84
2022/11/06 10:55:20;;;;;;;6.78;0.75;;;13.60;99.90;;;;;;7399154;19;19922;-84
2022/11/06 10:57:54;;;;;;;5.90;0.70;;;13.60;99.90;;;;;;7402660;19;20293;-84
2022/11/06 11:00:24;;;;;;;5.78;1.63;;;13.60;99.90;;;;;;7408610;19;19925;-84
2022/11/06 11:02:59;;;;;;;5.80;1.48;;;13.50;99.90;;;;;;7407169;19;19918;-84
2022/11/06 11:05:35;;;;;;;6.95;1.60;;;13.40;99.90;;;;;;7405570;19;19923;-84
2022/11/06 11:08:04;;;;;;;;;;;13.40;99.90;;;;;;7410617;19;19934;-84
2022/11/06 11:10:34;;;;;;;9.60;1.48;;;13.30;99.90;;;;;;7402018;19;20039;-85
2022/11/06 11:13:06;;;;;;;2.70;1.17;;;13.30;99.90;;;;;;7402462;19;19910;-85
2022/11/06 11:15:40;;;;;;;3.85;0.57;;;13.30;99.90;;;;;;7402627;19;19985;-87
2022/11/06 11:18:29;;;;;;;2.78;0.40;;;13.30;99.90;;;;;;7395362;19;20276;-89
2022/11/06 11:21:08;;;;;;;6.10;0.47;;;13.50;99.90;;;;;;7389367;19;19989;-85
2022/11/06 11:23:37;;;;;;;3.38;0.57;;;13.70;99.90;;;;;;7402391;19;19922;-87
2022/11/06 11:26:22;;;;;;;4.25;1.35;;;13.80;99.90;;;;;;7390783;19;19928;-86
2022/11/06 11:28:55;;;;;;;3.13;0.40;;;14.00;99.90;;;;;;7397882;19;20280;-85
2022/11/06 11:31:31;;;;;;;3.58;1.15;;;14.20;99.90;;;;;;7406765;19;19934;-84
2022/11/06 11:34:03;;;;;;;;;;;14.20;99.90;;;;;;7407261;19;19981;-84
2022/11/06 11:36:51;;;;;;;4.10;0.95;;;14.40;99.90;;;;;;7402337;19;19938;-84
2022/11/06 11:39:24;;;;;;;4.47;0.52;;;14.40;99.90;;;;;;7406748;19;20343;-84
2022/11/06 11:41:53;;;;;;;3.70;0.20;;;14.60;99.90;;;;;;7398521;19;19943;-85
2022/11/06 11:44:24;;;;;;;2.70;0.80;;;14.70;99.90;;;;;;7407519;19;20037;-84
2022/11/06 11:46:54;;;;;;;2.60;1.08;;;14.70;99.90;;;;;;7401278;19;20388;-85
2022/11/06 11:49:34;;;;;;;4.68;0.30;;;14.80;99.90;;;;;;7399388;19;20733;-86
2022/11/06 11:52:04;;;;;;;6.18;1.02;;;15.00;99.90;;;;;;7400760;19;20465;-86
2022/11/06 11:54:35;;;;;;;3.00;0.75;;;15.00;99.90;;;;;;7398083;19;20471;-86
2022/11/06 11:57:06;;;;;;;4.72;0.43;;;15.10;99.90;;;;;;7403555;19;19926;-87
2022/11/06 11:59:43;;;;;;;3.13;1.13;;;15.10;99.90;;;;;;7401824;19;19936;-87
2022/11/06 12:02:20;;;;;;;2.13;0.52;;;15.20;99.90;;;;;;7401092;19;19922;-87
2022/11/06 12:04:55;;;;;;;3.83;0.82;;;15.20;99.90;;;;;;7397708;19;19982;-87
2022/11/06 12:07:29;;;;;;;4.28;0.55;;;15.10;99.90;;;;;;7399779;19;19915;-85
2022/11/06 12:10:00;;;;;;;4.32;0.25;;;15.10;99.90;;;;;;7400694;19;19946;-85
2022/11/06 12:12:33;;;;;;;2.85;0.30;;;15.00;99.90;;;;;;7392128;19;19927;-85
2022/11/06 12:15:20;;;;;;;4.32;0.30;;;15.10;99.90;;;;;;7399587;19;19926;-87
2022/11/06 12:17:54;;;;;;;2.38;0.70;;;15.20;99.90;;;;;;7400644;19;19918;-87
2022/11/06 12:20:40;;;;;;;2.65;0.68;;;15.40;99.90;;;;;;7395711;19;19956;-87
2022/11/06 12:23:16;;;;;;;3.22;0.30;;;15.60;99.90;;;;;;7399019;19;20263;-87
2022/11/06 12:25:46;;;;;;;;;;;15.50;99.90;;;;;;7402955;19;19922;-87
2022/11/06 12:28:18;;;;;;;2.13;0.60;;;15.50;99.90;;;;;;7394950;19;19933;-87
2022/11/06 12:30:54;;;;;;;3.38;0.75;;;15.50;99.90;;;;;;7400379;19;19919;-84
2022/11/06 12:33:25;;;;;;;4.18;0.73;;;15.40;99.90;;;;;;7379746;19;19927;-84
2022/11/06 12:36:01;;;;;;;3.10;0.68;;;15.10;99.90;;;;;;7400875;19;19918;-84
2022/11/06 12:38:33;;;;;;;;;;;15.10;99.90;;;;;;7402646;19;19919;-87
2022/11/06 12:41:08;;;;;;;3.17;0.73;;;15.10;99.90;;;;;;7398302;19;20328;-87
2022/11/06 12:43:43;;;;;;;3.70;0.30;;;15.30;99.90;;;;;;7396805;19;19923;-86
2022/11/06 12:46:28;;;;;;;1.48;0.55;;;15.40;99.90;;;;;;7395081;19;19918;-86
2022/11/06 12:49:34;;;;;;;4.88;0.93;;;15.50;99.90;;;;;;7400624;19;19918;-87
2022/11/06 12:52:26;;;;;;;1.55;0.20;;;15.50;99.90;;;;;;7397002;19;19922;-85
2022/11/06 12:55:17;;;;;;;2.05;0.55;;;15.60;99.90;;;;;;7398326;19;19929;-87
2022/11/06 12:57:59;;;;;;;3.33;0.60;;;15.70;99.90;;;;;;7401357;19;20356;-87
2022/11/06 13:00:38;;;;;;;4.30;0.75;;;15.70;99.90;;;;;;7392923;19;19915;-86
2022/11/06 13:03:32;;;;;;;6.32;2.42;;;15.50;99.90;;;;;;7399778;19;20360;-87
2022/11/06 13:06:05;;;;;;;5.32;2.08;;;15.60;99.90;;;;;;7393612;19;20754;-87
2022/11/06 13:08:46;;;;;;;3.25;0.93;;;15.50;99.90;;;;;;7395127;19;20026;-85
2022/11/06 13:11:26;;;;;;;3.22;0.38;;;15.40;99.90;;;;;;7383055;19;20043;-86
2022/11/06 13:14:12;;;;;;;2.10;0.82;;;15.30;99.90;;;;;;7386288;19;19933;-86
2022/11/06 13:16:47;;;;;;;3.33;0.82;;;15.20;99.90;;;;;;7396467;19;19922;-87
2022/11/06 13:19:26;;;;;;;3.30;1.00;;;15.00;99.90;;;;;;7400164;19;19933;-86
2022/11/06 13:22:07;;;;;;;2.47;1.00;;;14.80;99.90;;;;;;7399478;19;19929;-87
2022/11/06 13:24:47;;;;;;;3.42;0.80;;;14.80;99.90;;;;;;7398377;19;19930;-87
2022/11/06 13:27:25;;;;;;;3.58;0.63;;;14.70;99.90;;;;;;7403104;19;19919;-86
2022/11/06 13:30:01;;;;;;;3.97;0.47;;;14.70;99.90;;;;;;7396677;19;19918;-87
2022/11/06 13:32:33;;;;;;;3.65;0.60;;;14.60;99.90;;;;;;7397323;19;20249;-87